createdAt,value
2023-03-24T00:01:27.586Z,12.10
2023-03-24T00:03:55.933Z,12.10
2023-03-24T00:06:26.605Z,12.10
2023-03-24T00:08:55.117Z,12.00
2023-03-24T00:11:26.369Z,12.00
2023-03-24T00:13:58.423Z,12.00
2023-03-24T00:16:26.979Z,12.00
2023-03-24T00:18:55.495Z,12.10
2023-03-24T00:21:26.305Z,12.10
2023-03-24T00:23:58.242Z,12.10
2023-03-24T00:26:28.344Z,12.00
2023-03-24T00:28:57.111Z,12.00
2023-03-24T00:31:26.467Z,12.00
2023-03-24T00:33:55.361Z,11.90
2023-03-24T00:36:26.549Z,12.00
2023-03-24T00:38:55.855Z,11.90
2023-03-24T00:41:27.053Z,11.90
2023-03-24T00:43:59.956Z,11.80
2023-03-24T00:46:28.859Z,11.90
2023-03-24T00:49:03.108Z,12.00
2023-03-24T00:51:34.161Z,12.00
2023-03-24T00:54:03.212Z,12.00
2023-03-24T00:56:33.648Z,12.10
2023-03-24T00:59:03.392Z,12.10
2023-03-24T01:01:36.599Z,12.10
2023-03-24T01:04:06.937Z,12.10
2023-03-24T01:06:37.458Z,12.10
2023-03-24T01:09:07.596Z,12.10
2023-03-24T01:11:39.797Z,12.00
2023-03-24T01:14:11.602Z,12.10
2023-03-24T01:16:40.096Z,12.10
2023-03-24T01:19:09.650Z,12.10
2023-03-24T01:21:39.548Z,12.10
2023-03-24T01:24:08.554Z,12.20
2023-03-24T01:26:37.807Z,12.20
2023-03-24T01:29:06.378Z,12.10
2023-03-24T01:31:36.734Z,12.10
2023-03-24T01:34:05.350Z,12.10
2023-03-24T01:36:33.710Z,12.10
2023-03-24T01:39:02.086Z,12.10
2023-03-24T01:41:35.943Z,12.00
2023-03-24T01:44:28.840Z,12.00
2023-03-24T01:46:58.712Z,12.00
2023-03-24T01:49:33.331Z,12.10
2023-03-24T01:52:06.603Z,12.00
2023-03-24T01:54:42.131Z,12.00
2023-03-24T01:57:15.917Z,12.10
2023-03-24T01:59:50.239Z,12.10
2023-03-24T02:02:22.068Z,12.20
2023-03-24T02:04:54.450Z,12.20
2023-03-24T02:07:34.051Z,12.20
2023-03-24T02:10:05.258Z,12.20
2023-03-24T02:12:34.146Z,12.30
2023-03-24T02:15:05.491Z,12.30
2023-03-24T02:18:02.577Z,12.40
2023-03-24T02:21:24.151Z,12.50
2023-03-24T02:24:36.232Z,12.50
2023-03-24T02:27:24.043Z,12.40
2023-03-24T02:30:33.088Z,12.40
2023-03-24T02:33:55.035Z,12.30
2023-03-24T02:37:14.345Z,12.40
2023-03-24T02:40:12.586Z,12.30
2023-03-24T02:42:55.388Z,12.20
2023-03-24T02:45:31.615Z,12.10
2023-03-24T02:48:22.073Z,12.10
2023-03-24T02:50:58.324Z,12.10
2023-03-24T02:53:34.393Z,11.90
2023-03-24T02:56:12.539Z,11.80
2023-03-24T02:58:50.624Z,11.70
2023-03-24T03:01:31.609Z,11.60
2023-03-24T03:04:08.160Z,11.50
2023-03-24T03:06:40.636Z,11.60
2023-03-24T03:09:15.234Z,11.50
2023-03-24T03:11:50.842Z,11.50
2023-03-24T03:14:28.652Z,11.50
2023-03-24T03:17:04.761Z,11.50
2023-03-24T03:19:38.706Z,11.50
2023-03-24T03:22:17.034Z,11.50
2023-03-24T03:24:53.002Z,11.50
2023-03-24T03:27:29.341Z,11.50
2023-03-24T03:30:04.174Z,11.60
2023-03-24T03:32:39.046Z,11.60
2023-03-24T03:35:15.772Z,11.60
2023-03-24T03:37:54.921Z,11.80
2023-03-24T03:40:28.839Z,11.80
2023-03-24T03:42:59.218Z,11.80
2023-03-24T03:45:27.861Z,11.80
2023-03-24T03:47:56.593Z,11.90
2023-03-24T03:50:24.994Z,11.80
2023-03-24T03:52:53.683Z,11.80
2023-03-24T03:55:22.417Z,11.70
2023-03-24T03:57:52.063Z,11.70
2023-03-24T04:00:23.569Z,11.80
2023-03-24T04:03:17.439Z,11.80
2023-03-24T04:05:54.636Z,11.80
2023-03-24T04:08:38.477Z,11.90
2023-03-24T04:11:37.169Z,11.80
2023-03-24T04:14:57.725Z,11.90
2023-03-24T04:17:51.715Z,11.90
2023-03-24T04:20:32.532Z,12.00
2023-03-24T04:23:14.580Z,11.90
2023-03-24T04:25:56.698Z,11.90
2023-03-24T04:28:34.717Z,12.00
2023-03-24T04:31:14.940Z,12.00
2023-03-24T04:33:51.962Z,11.90
2023-03-24T04:36:29.076Z,11.90
2023-03-24T04:39:01.695Z,11.90
2023-03-24T04:41:32.388Z,11.90
2023-03-24T04:44:01.704Z,11.90
2023-03-24T04:46:29.932Z,11.90
2023-03-24T04:48:59.799Z,11.90
2023-03-24T04:51:28.679Z,11.90
2023-03-24T04:53:56.874Z,11.90
2023-03-24T04:56:36.181Z,12.00
2023-03-24T04:59:04.995Z,11.90
2023-03-24T05:01:37.312Z,11.90
2023-03-24T05:04:08.318Z,11.90
2023-03-24T05:06:36.428Z,11.90
2023-03-24T05:09:05.562Z,12.00
2023-03-24T05:11:33.629Z,12.00
2023-03-24T05:14:01.996Z,12.10
2023-03-24T05:16:30.177Z,12.10
2023-03-24T05:18:58.358Z,12.10
2023-03-24T05:21:27.854Z,12.20
2023-03-24T05:23:56.145Z,12.20
2023-03-24T05:26:24.307Z,12.20
2023-03-24T05:28:52.411Z,12.30
2023-03-24T05:31:20.747Z,12.30
2023-03-24T05:33:49.726Z,12.30
2023-03-24T05:36:18.093Z,12.30
2023-03-24T05:38:47.555Z,12.30
2023-03-24T05:41:16.006Z,12.30
2023-03-24T05:43:44.110Z,12.30
2023-03-24T05:46:12.261Z,12.30
2023-03-24T05:48:40.453Z,12.20
2023-03-24T05:51:09.517Z,12.30
2023-03-24T05:53:37.665Z,12.30
2023-03-24T05:56:11.994Z,12.40
2023-03-24T05:58:40.257Z,12.50
2023-03-24T06:01:10.641Z,12.50
2023-03-24T06:03:40.427Z,12.60
2023-03-24T06:06:14.476Z,12.70
2023-03-24T06:08:44.868Z,12.70
2023-03-24T06:11:14.398Z,12.80
2023-03-24T06:13:42.529Z,12.70
2023-03-24T06:16:11.315Z,12.70
2023-03-24T06:18:42.688Z,12.80
2023-03-24T06:21:10.883Z,12.90
2023-03-24T06:23:39.009Z,12.90
2023-03-24T06:26:11.767Z,13.00
2023-03-24T06:28:42.218Z,13.00
2023-03-24T06:31:15.042Z,13.00
2023-03-24T06:33:43.470Z,13.00
2023-03-24T06:36:13.568Z,13.10
2023-03-24T06:38:42.767Z,13.20
2023-03-24T06:41:11.318Z,13.30
2023-03-24T06:43:41.231Z,13.30
2023-03-24T06:46:10.138Z,13.30
2023-03-24T06:48:38.542Z,13.30
2023-03-24T06:51:08.268Z,13.30
2023-03-24T06:53:37.744Z,13.30
2023-03-24T06:56:07.468Z,13.30
2023-03-24T06:58:35.836Z,13.30
2023-03-24T07:01:05.451Z,13.30
2023-03-24T07:03:33.733Z,13.40
2023-03-24T07:06:02.042Z,13.40
2023-03-24T07:08:38.107Z,13.40
2023-03-24T07:11:08.717Z,13.40
2023-03-24T07:13:37.037Z,13.50
2023-03-24T07:16:07.651Z,13.50
2023-03-24T07:18:36.250Z,13.60
2023-03-24T07:21:04.791Z,13.60
2023-03-24T07:23:33.125Z,13.70
2023-03-24T07:26:01.803Z,13.80
2023-03-24T07:28:29.968Z,13.80
2023-03-24T07:30:59.376Z,13.90
2023-03-24T07:33:29.020Z,14.00
2023-03-24T07:35:58.187Z,14.00
2023-03-24T07:38:26.990Z,14.10
2023-03-24T07:40:55.327Z,14.20
2023-03-24T07:43:23.502Z,14.30
2023-03-24T07:45:51.977Z,14.30
2023-03-24T07:48:20.523Z,14.40
2023-03-24T07:50:49.990Z,14.40
2023-03-24T07:53:20.020Z,14.50
2023-03-24T07:55:49.024Z,14.50
2023-03-24T07:58:17.907Z,14.50
2023-03-24T08:00:46.226Z,14.50
2023-03-24T08:03:15.335Z,14.50
2023-03-24T08:05:46.150Z,14.60
2023-03-24T08:08:15.783Z,14.70
2023-03-24T08:10:45.701Z,14.70
2023-03-24T08:13:14.380Z,14.60
2023-03-24T08:15:42.518Z,14.60
2023-03-24T08:18:10.972Z,14.60
2023-03-24T08:20:39.351Z,14.60
2023-03-24T08:23:08.390Z,14.70
2023-03-24T08:25:38.560Z,14.80
2023-03-24T08:28:07.359Z,14.80
2023-03-24T08:30:36.094Z,14.90
2023-03-24T08:33:05.776Z,14.90
2023-03-24T08:35:38.553Z,15.10
2023-03-24T08:38:08.336Z,15.30
2023-03-24T08:40:41.142Z,15.50
2023-03-24T08:43:15.316Z,15.60
2023-03-24T08:45:44.215Z,15.70
2023-03-24T08:48:12.489Z,15.80
2023-03-24T08:50:43.406Z,15.80
2023-03-24T08:53:12.691Z,15.80
2023-03-24T08:55:43.663Z,15.90
2023-03-24T08:58:16.092Z,15.90
2023-03-24T09:00:46.410Z,16.00
2023-03-24T09:03:18.442Z,16.00
2023-03-24T09:05:48.002Z,16.20
2023-03-24T09:08:19.228Z,16.40
2023-03-24T09:10:49.011Z,16.60
2023-03-24T09:13:18.521Z,16.70
2023-03-24T09:15:52.368Z,16.60
2023-03-24T09:18:22.642Z,16.40
2023-03-24T09:20:51.946Z,16.30
2023-03-24T09:23:21.512Z,16.40
2023-03-24T09:25:52.380Z,16.40
2023-03-24T09:28:21.088Z,16.30
2023-03-24T09:30:49.718Z,16.30
2023-03-24T09:33:18.742Z,16.40
2023-03-24T09:35:46.893Z,16.30
2023-03-24T09:38:15.006Z,16.50
2023-03-24T09:40:43.743Z,16.70
2023-03-24T09:43:28.281Z,16.70
2023-03-24T09:46:02.267Z,16.70
2023-03-24T09:48:39.700Z,16.90
2023-03-24T09:51:11.975Z,17.00
2023-03-24T09:53:51.306Z,17.20
2023-03-24T09:56:23.378Z,17.60
2023-03-24T09:59:04.195Z,17.90
2023-03-24T10:01:32.534Z,17.90
2023-03-24T10:04:02.561Z,17.70
2023-03-24T10:06:38.566Z,17.60
2023-03-24T10:09:23.912Z,17.40
2023-03-24T10:12:19.811Z,17.40
2023-03-24T10:15:05.515Z,17.20
2023-03-24T10:17:47.648Z,17.10
2023-03-24T10:20:35.344Z,17.00
2023-03-24T10:23:25.268Z,17.00
2023-03-24T10:26:05.167Z,17.10
2023-03-24T10:28:42.892Z,17.10
2023-03-24T10:31:17.213Z,17.20
2023-03-24T10:33:47.405Z,17.40
2023-03-24T10:36:19.145Z,17.50
2023-03-24T10:38:49.347Z,17.60
2023-03-24T10:41:21.031Z,17.80
2023-03-24T10:43:52.000Z,18.10
2023-03-24T10:46:25.458Z,18.30
2023-03-24T10:49:08.394Z,18.30
2023-03-24T10:51:36.980Z,18.20
2023-03-24T10:54:15.190Z,18.10
2023-03-24T10:56:46.687Z,18.00
2023-03-24T10:59:28.687Z,17.90
2023-03-24T11:02:16.916Z,17.60
2023-03-24T11:04:53.500Z,17.30
2023-03-24T11:07:23.618Z,16.90
2023-03-24T11:10:03.202Z,16.60
2023-03-24T11:12:34.381Z,16.40
2023-03-24T11:15:21.233Z,16.30
2023-03-24T11:17:58.204Z,16.20
2023-03-24T11:20:32.336Z,16.00
2023-03-24T11:23:04.074Z,15.80
2023-03-24T11:25:35.991Z,15.60
2023-03-24T11:28:10.040Z,15.40
2023-03-24T11:30:48.008Z,15.20
2023-03-24T11:33:35.371Z,15.10
2023-03-24T11:36:25.692Z,15.00
2023-03-24T11:39:02.290Z,15.00
2023-03-24T11:41:31.129Z,15.10
2023-03-24T11:44:18.664Z,15.20
2023-03-24T11:46:51.097Z,15.20
2023-03-24T11:49:27.624Z,15.20
2023-03-24T11:51:57.143Z,15.20
2023-03-24T11:54:33.187Z,15.20
2023-03-24T11:57:08.898Z,15.10
2023-03-24T11:59:49.757Z,15.20
2023-03-24T12:02:31.454Z,15.20
2023-03-24T12:05:23.741Z,14.90
2023-03-24T12:08:14.928Z,14.90
2023-03-24T12:11:00.855Z,14.70
2023-03-24T12:13:36.539Z,14.70
2023-03-24T12:16:22.791Z,14.70
2023-03-24T12:19:26.729Z,14.60
2023-03-24T12:22:09.542Z,14.60
2023-03-24T12:25:01.675Z,14.70
2023-03-24T12:27:43.117Z,14.70
2023-03-24T12:30:25.830Z,14.70
2023-03-24T12:33:15.964Z,14.70
2023-03-24T12:36:05.263Z,14.90
2023-03-24T12:38:57.021Z,15.00
2023-03-24T12:41:45.538Z,15.10
2023-03-24T12:45:03.287Z,15.10
2023-03-24T12:48:01.792Z,14.90
2023-03-24T12:50:45.820Z,14.70
2023-03-24T12:53:39.688Z,14.50
2023-03-24T12:56:17.852Z,14.50
2023-03-24T12:58:50.972Z,14.30
2023-03-24T13:01:29.327Z,14.20
2023-03-24T13:04:09.684Z,14.20
2023-03-24T13:06:48.270Z,14.00
2023-03-24T13:09:31.710Z,13.80
2023-03-24T13:12:10.964Z,13.70
2023-03-24T13:14:52.818Z,13.60
2023-03-24T13:17:28.978Z,13.50
2023-03-24T13:19:59.002Z,13.30
2023-03-24T13:22:28.719Z,13.20
2023-03-24T13:24:58.098Z,13.40
2023-03-24T13:27:37.287Z,13.60
2023-03-24T13:30:33.187Z,13.70
2023-03-24T13:33:06.928Z,13.80
2023-03-24T13:36:04.287Z,13.80
2023-03-24T13:38:38.891Z,13.70
2023-03-24T13:41:12.284Z,13.60
2023-03-24T13:43:51.350Z,13.60
2023-03-24T13:46:20.387Z,13.50
2023-03-24T13:48:54.966Z,13.40
2023-03-24T13:51:29.309Z,13.30
2023-03-24T13:54:01.649Z,13.30
2023-03-24T13:56:36.513Z,13.50
2023-03-24T13:59:39.793Z,13.50
2023-03-24T14:02:23.238Z,13.50
2023-03-24T14:05:05.038Z,13.50
2023-03-24T14:07:49.736Z,13.60
2023-03-24T14:10:45.441Z,14.10
2023-03-24T14:13:35.812Z,14.20
2023-03-24T14:16:50.176Z,14.20
2023-03-24T14:19:26.141Z,14.00
2023-03-24T14:22:05.208Z,14.00
2023-03-24T14:24:33.971Z,14.00
2023-03-24T14:27:02.206Z,14.00
2023-03-24T14:29:41.277Z,13.90
2023-03-24T14:32:20.711Z,13.80
2023-03-24T14:34:58.736Z,13.70
2023-03-24T14:37:29.200Z,13.70
2023-03-24T14:39:59.939Z,13.60
2023-03-24T14:42:56.595Z,13.50
2023-03-24T14:45:52.837Z,13.50
2023-03-24T14:48:32.082Z,13.50
2023-03-24T14:51:07.419Z,13.60
2023-03-24T14:53:42.750Z,13.60
2023-03-24T14:56:18.753Z,13.80
2023-03-24T14:58:55.963Z,13.90
2023-03-24T15:01:32.089Z,14.10
2023-03-24T15:04:06.564Z,14.40
2023-03-24T15:06:44.913Z,14.50
2023-03-24T15:09:13.629Z,14.50
2023-03-24T15:11:44.686Z,14.40
2023-03-24T15:14:24.570Z,14.30
2023-03-24T15:16:59.298Z,14.10
2023-03-24T15:19:30.654Z,14.10
2023-03-24T15:22:02.592Z,14.10
2023-03-24T15:24:35.704Z,14.10
2023-03-24T15:27:23.217Z,14.10
2023-03-24T15:29:59.553Z,14.30
2023-03-24T15:32:31.961Z,14.40
2023-03-24T15:35:05.850Z,14.40
2023-03-24T15:37:40.556Z,14.40
2023-03-24T15:40:40.275Z,14.30
2023-03-24T15:43:19.781Z,14.30
2023-03-24T15:46:04.841Z,14.40
2023-03-24T15:48:39.730Z,14.40
2023-03-24T15:51:11.314Z,14.40
2023-03-24T15:53:44.733Z,14.30
2023-03-24T15:56:26.440Z,14.40
2023-03-24T15:58:57.094Z,14.40
2023-03-24T16:01:35.899Z,14.40
2023-03-24T16:04:08.645Z,14.40
2023-03-24T16:06:38.391Z,14.40
2023-03-24T16:09:13.603Z,14.30
2023-03-24T16:11:42.624Z,14.20
2023-03-24T16:14:23.567Z,14.10
2023-03-24T16:16:58.611Z,14.00
2023-03-24T16:19:28.547Z,13.90
2023-03-24T16:21:56.801Z,14.00
2023-03-24T16:24:25.042Z,14.00
2023-03-24T16:26:53.303Z,13.90
2023-03-24T16:29:23.656Z,13.90
2023-03-24T16:31:56.843Z,13.80
2023-03-24T16:34:25.615Z,13.80
2023-03-24T16:36:56.528Z,13.70
2023-03-24T16:39:27.928Z,13.60
2023-03-24T16:41:56.815Z,13.50
2023-03-24T16:44:25.927Z,13.50
2023-03-24T16:46:56.574Z,13.40
2023-03-24T16:49:25.321Z,13.30
2023-03-24T16:51:53.844Z,13.20
2023-03-24T16:54:22.022Z,13.20
2023-03-24T16:56:50.280Z,13.10
2023-03-24T16:59:19.678Z,12.90
2023-03-24T17:01:48.335Z,12.90
2023-03-24T17:04:22.148Z,12.90
2023-03-24T17:06:53.471Z,12.80
2023-03-24T17:09:22.969Z,12.70
2023-03-24T17:11:54.430Z,12.70
2023-03-24T17:14:23.016Z,12.70
2023-03-24T17:16:53.288Z,12.70
2023-03-24T17:19:27.032Z,12.70
2023-03-24T17:22:02.237Z,12.60
2023-03-24T17:24:35.648Z,12.60
2023-03-24T17:27:04.407Z,12.50
2023-03-24T17:29:32.641Z,12.50
2023-03-24T17:32:00.817Z,12.40
2023-03-24T17:34:30.567Z,12.40
2023-03-24T17:36:58.726Z,12.40
2023-03-24T17:39:26.824Z,12.40
2023-03-24T17:41:57.622Z,12.30
2023-03-24T17:44:25.893Z,12.20
2023-03-24T17:46:54.128Z,12.20
2023-03-24T17:49:22.383Z,12.20
2023-03-24T17:51:52.102Z,12.20
2023-03-24T17:54:20.498Z,12.10
2023-03-24T17:56:48.787Z,12.00
2023-03-24T17:59:17.019Z,11.90
2023-03-24T18:01:47.198Z,11.80
2023-03-24T18:04:15.840Z,11.90
2023-03-24T18:06:44.133Z,11.80
2023-03-24T18:09:13.670Z,11.80
2023-03-24T18:11:41.885Z,11.70
2023-03-24T18:14:10.098Z,11.70
2023-03-24T18:16:39.243Z,11.70
2023-03-24T18:19:07.929Z,11.70
2023-03-24T18:21:36.494Z,11.70
2023-03-24T18:24:06.402Z,11.60
2023-03-24T18:26:35.813Z,11.60
2023-03-24T18:29:05.592Z,11.50
2023-03-24T18:31:34.306Z,11.40
2023-03-24T18:34:03.853Z,11.30
2023-03-24T18:36:32.261Z,11.30
2023-03-24T18:39:03.523Z,11.30
2023-03-24T18:41:36.667Z,11.30
2023-03-24T18:44:09.226Z,11.20
2023-03-24T18:46:37.855Z,11.20
2023-03-24T18:49:07.095Z,11.30
2023-03-24T18:51:35.788Z,11.40
2023-03-24T18:54:03.959Z,11.40
2023-03-24T18:56:32.149Z,11.40
2023-03-24T18:59:00.280Z,11.30
2023-03-24T19:01:30.294Z,11.40
2023-03-24T19:03:58.440Z,11.30
2023-03-24T19:06:31.105Z,11.20
2023-03-24T19:09:00.401Z,11.20
2023-03-24T19:11:28.507Z,11.20
2023-03-24T19:13:57.910Z,11.20
2023-03-24T19:16:26.179Z,11.20
2023-03-24T19:18:57.715Z,11.10
2023-03-24T19:21:27.393Z,11.00
2023-03-24T19:23:56.864Z,11.10
2023-03-24T19:26:25.771Z,11.00
2023-03-24T19:28:53.881Z,11.00
2023-03-24T19:31:22.059Z,11.00
2023-03-24T19:33:52.051Z,10.90
2023-03-24T19:36:21.537Z,10.90
2023-03-24T19:38:49.587Z,10.80
2023-03-24T19:41:17.689Z,10.80
2023-03-24T19:43:45.699Z,10.80
2023-03-24T19:46:13.795Z,10.80
2023-03-24T19:48:41.925Z,10.80
2023-03-24T19:51:10.042Z,10.80
2023-03-24T19:53:39.771Z,10.70
2023-03-24T19:56:09.059Z,10.70
2023-03-24T19:58:37.092Z,10.70
2023-03-24T20:01:05.567Z,10.60
2023-03-24T20:03:35.529Z,10.60
2023-03-24T20:06:09.145Z,10.60
2023-03-24T20:08:39.448Z,10.50
2023-03-24T20:11:09.251Z,10.50
2023-03-24T20:13:37.710Z,10.50
2023-03-24T20:16:06.926Z,10.50
2023-03-24T20:18:35.823Z,10.50
2023-03-24T20:21:06.181Z,10.40
2023-03-24T20:23:34.291Z,10.40
2023-03-24T20:26:03.791Z,10.40
2023-03-24T20:28:31.891Z,10.30
2023-03-24T20:31:00.850Z,10.30
2023-03-24T20:33:29.558Z,10.30
2023-03-24T20:35:58.373Z,10.30
2023-03-24T20:38:27.019Z,10.40
2023-03-24T20:41:00.002Z,10.60
2023-03-24T20:43:30.973Z,10.80
2023-03-24T20:45:59.410Z,10.90
2023-03-24T20:48:27.540Z,10.80
2023-03-24T20:50:55.710Z,10.80
2023-03-24T20:53:24.781Z,10.70
2023-03-24T20:55:59.538Z,10.70
2023-03-24T20:58:30.693Z,10.70
2023-03-24T21:00:59.268Z,10.70
2023-03-24T21:03:27.668Z,10.60
2023-03-24T21:05:55.744Z,10.60
2023-03-24T21:08:23.920Z,10.60
2023-03-24T21:10:57.017Z,10.50
2023-03-24T21:15:57.936Z,10.40
2023-03-24T21:18:26.424Z,10.50
2023-03-24T21:20:55.861Z,10.50
2023-03-24T21:23:24.881Z,10.50
2023-03-24T21:25:53.484Z,10.60
2023-03-24T21:28:21.577Z,10.60
2023-03-24T21:30:49.663Z,10.70
2023-03-24T21:33:19.056Z,10.70
2023-03-24T21:35:47.640Z,11.00
2023-03-24T21:38:16.172Z,10.90
2023-03-24T21:40:44.613Z,10.80
2023-03-24T21:43:14.643Z,10.70
2023-03-24T21:45:46.319Z,10.60
2023-03-24T21:48:16.138Z,10.60
2023-03-24T21:50:46.175Z,10.50
2023-03-24T21:53:15.766Z,10.40
2023-03-24T21:55:52.175Z,10.30
2023-03-24T21:58:21.014Z,10.30
2023-03-24T22:00:52.095Z,10.20
2023-03-24T22:03:21.616Z,10.20
2023-03-24T22:05:51.583Z,10.10
2023-03-24T22:08:22.538Z,10.10
2023-03-24T22:10:54.236Z,10.10
2023-03-24T22:13:22.315Z,10.10
2023-03-24T22:15:55.389Z,10.10
2023-03-24T22:18:23.709Z,10.20
2023-03-24T22:20:57.913Z,10.30
2023-03-24T22:23:26.344Z,10.30
2023-03-24T22:25:54.447Z,10.30
2023-03-24T22:28:22.668Z,10.30
2023-03-24T22:30:51.129Z,10.30
2023-03-24T22:33:19.326Z,10.30
2023-03-24T22:35:47.553Z,10.30
2023-03-24T22:38:17.898Z,10.20
2023-03-24T22:40:46.229Z,10.10
2023-03-24T22:43:14.394Z,10.20
2023-03-24T22:45:43.389Z,10.10
2023-03-24T22:48:11.539Z,10.10
2023-03-24T22:50:41.924Z,10.10
2023-03-24T22:53:10.773Z,10.10
2023-03-24T22:55:42.051Z,10.10
2023-03-24T22:58:10.784Z,10.00
2023-03-24T23:00:38.927Z,9.90
2023-03-24T23:03:07.167Z,9.90
2023-03-24T23:05:35.360Z,9.80
2023-03-24T23:08:04.166Z,9.70
2023-03-24T23:10:32.297Z,9.60
2023-03-24T23:13:02.038Z,9.60
2023-03-24T23:15:30.156Z,9.70
2023-03-24T23:17:58.494Z,9.70
2023-03-24T23:20:27.986Z,9.80
2023-03-24T23:22:56.684Z,9.80
2023-03-24T23:25:25.924Z,9.80
2023-03-24T23:27:54.146Z,9.80
2023-03-24T23:30:24.019Z,9.80
2023-03-24T23:32:53.729Z,9.70
2023-03-24T23:35:21.937Z,9.90
2023-03-24T23:37:50.265Z,9.90
2023-03-24T23:40:19.193Z,9.90
2023-03-24T23:42:49.718Z,9.90
2023-03-24T23:45:20.725Z,10.00
2023-03-24T23:47:52.461Z,10.00
2023-03-24T23:50:21.663Z,10.00
2023-03-24T23:52:50.075Z,10.00
2023-03-24T23:55:20.939Z,10.00
2023-03-24T23:57:50.125Z,10.10
